sensor_id;sensor_type;location;lat;lon;timestamp;temperature;humidity
48551;DHT22;34397;51.176;6.738;2022-09-20T00:01:48;11.30;67.40
48551;DHT22;34397;51.176;6.738;2022-09-20T00:04:20;11.30;66.90
48551;DHT22;34397;51.176;6.738;2022-09-20T00:06:52;11.30;67.10
48551;DHT22;34397;51.176;6.738;2022-09-20T00:09:24;11.30;67.20
48551;DHT22;34397;51.176;6.738;2022-09-20T00:11:57;11.20;67.30
48551;DHT22;34397;51.176;6.738;2022-09-20T00:14:29;11.20;67.40
48551;DHT22;34397;51.176;6.738;2022-09-20T00:17:01;11.20;67.90
48551;DHT22;34397;51.176;6.738;2022-09-20T00:19:33;11.30;67.40
48551;DHT22;34397;51.176;6.738;2022-09-20T00:22:05;11.30;67.40
48551;DHT22;34397;51.176;6.738;2022-09-20T00:24:36;11.20;67.40
48551;DHT22;34397;51.176;6.738;2022-09-20T00:27:10;11.20;67.50
48551;DHT22;34397;51.176;6.738;2022-09-20T00:29:41;11.30;67.50
48551;DHT22;34397;51.176;6.738;2022-09-20T00:32:13;11.30;67.30
48551;DHT22;34397;51.176;6.738;2022-09-20T00:34:45;11.30;67.60
48551;DHT22;34397;51.176;6.738;2022-09-20T00:37:35;11.20;67.90
48551;DHT22;34397;51.176;6.738;2022-09-20T00:40:11;11.30;68.00
48551;DHT22;34397;51.176;6.738;2022-09-20T00:42:45;11.20;67.90
48551;DHT22;34397;51.176;6.738;2022-09-20T00:45:20;11.20;68.00
48551;DHT22;34397;51.176;6.738;2022-09-20T00:47:55;11.20;68.30
48551;DHT22;34397;51.176;6.738;2022-09-20T00:50:33;11.20;68.40
48551;DHT22;34397;51.176;6.738;2022-09-20T00:53:11;11.20;68.30
48551;DHT22;34397;51.176;6.738;2022-09-20T00:55:47;11.20;68.50
48551;DHT22;34397;51.176;6.738;2022-09-20T00:58:24;11.20;68.60
48551;DHT22;34397;51.176;6.738;2022-09-20T01:00:58;11.20;68.80
48551;DHT22;34397;51.176;6.738;2022-09-20T01:03:31;11.20;68.80
48551;DHT22;34397;51.176;6.738;2022-09-20T01:06:07;11.20;68.60
48551;DHT22;34397;51.176;6.738;2022-09-20T01:08:46;11.30;68.50
48551;DHT22;34397;51.176;6.738;2022-09-20T01:11:21;11.20;68.40
48551;DHT22;34397;51.176;6.738;2022-09-20T01:13:54;11.30;68.60
48551;DHT22;34397;51.176;6.738;2022-09-20T01:16:28;11.20;68.60
48551;DHT22;34397;51.176;6.738;2022-09-20T01:19:05;11.20;68.80
48551;DHT22;34397;51.176;6.738;2022-09-20T01:21:41;11.20;68.80
48551;DHT22;34397;51.176;6.738;2022-09-20T01:24:20;11.20;68.50
48551;DHT22;34397;51.176;6.738;2022-09-20T01:27:10;11.30;68.70
48551;DHT22;34397;51.176;6.738;2022-09-20T01:29:59;11.30;68.70
48551;DHT22;34397;51.176;6.738;2022-09-20T01:32:43;11.20;68.50
48551;DHT22;34397;51.176;6.738;2022-09-20T01:35:23;11.20;68.60
48551;DHT22;34397;51.176;6.738;2022-09-20T01:38:09;11.20;68.50
48551;DHT22;34397;51.176;6.738;2022-09-20T01:40:53;11.20;68.50
48551;DHT22;34397;51.176;6.738;2022-09-20T01:43:34;11.30;68.40
48551;DHT22;34397;51.176;6.738;2022-09-20T01:46:20;11.20;68.50
48551;DHT22;34397;51.176;6.738;2022-09-20T01:49:08;11.30;68.80
48551;DHT22;34397;51.176;6.738;2022-09-20T01:52:12;11.30;68.50
48551;DHT22;34397;51.176;6.738;2022-09-20T01:55:38;11.20;68.60
48551;DHT22;34397;51.176;6.738;2022-09-20T01:59:07;11.30;68.60
48551;DHT22;34397;51.176;6.738;2022-09-20T02:02:06;11.20;68.60
48551;DHT22;34397;51.176;6.738;2022-09-20T02:05:03;11.20;68.20
48551;DHT22;34397;51.176;6.738;2022-09-20T02:11:21;11.20;68.50
48551;DHT22;34397;51.176;6.738;2022-09-20T02:14:18;11.30;68.10
48551;DHT22;34397;51.176;6.738;2022-09-20T02:17:09;11.20;68.60
48551;DHT22;34397;51.176;6.738;2022-09-20T02:19:53;11.30;68.40
48551;DHT22;34397;51.176;6.738;2022-09-20T02:22:52;11.30;68.30
48551;DHT22;34397;51.176;6.738;2022-09-20T02:26:04;11.20;68.20
48551;DHT22;34397;51.176;6.738;2022-09-20T02:28:53;11.20;68.50
48551;DHT22;34397;51.176;6.738;2022-09-20T02:31:39;11.20;68.30
48551;DHT22;34397;51.176;6.738;2022-09-20T02:34:41;11.30;68.30
48551;DHT22;34397;51.176;6.738;2022-09-20T02:40:54;11.20;68.50
48551;DHT22;34397;51.176;6.738;2022-09-20T02:43:42;11.20;68.40
48551;DHT22;34397;51.176;6.738;2022-09-20T02:46:21;11.30;68.40
48551;DHT22;34397;51.176;6.738;2022-09-20T02:49:00;11.30;68.50
48551;DHT22;34397;51.176;6.738;2022-09-20T02:51:39;11.30;68.40
48551;DHT22;34397;51.176;6.738;2022-09-20T02:54:18;11.30;68.40
48551;DHT22;34397;51.176;6.738;2022-09-20T02:57:04;11.30;68.50
48551;DHT22;34397;51.176;6.738;2022-09-20T02:59:48;11.30;68.40
48551;DHT22;34397;51.176;6.738;2022-09-20T03:02:27;11.30;68.30
48551;DHT22;34397;51.176;6.738;2022-09-20T03:05:08;11.30;68.30
48551;DHT22;34397;51.176;6.738;2022-09-20T03:08:03;11.30;68.30
48551;DHT22;34397;51.176;6.738;2022-09-20T03:10:49;11.30;68.40
48551;DHT22;34397;51.176;6.738;2022-09-20T03:13:35;11.30;68.10
48551;DHT22;34397;51.176;6.738;2022-09-20T03:16:27;11.30;68.00
48551;DHT22;34397;51.176;6.738;2022-09-20T03:19:12;11.30;68.20
48551;DHT22;34397;51.176;6.738;2022-09-20T03:22:00;11.30;68.00
48551;DHT22;34397;51.176;6.738;2022-09-20T03:24:41;11.30;68.40
48551;DHT22;34397;51.176;6.738;2022-09-20T03:27:29;11.30;68.10
48551;DHT22;34397;51.176;6.738;2022-09-20T03:30:23;11.30;68.10
48551;DHT22;34397;51.176;6.738;2022-09-20T03:33:09;11.20;68.30
48551;DHT22;34397;51.176;6.738;2022-09-20T03:35:50;11.20;68.40
48551;DHT22;34397;51.176;6.738;2022-09-20T03:38:44;11.20;68.20
48551;DHT22;34397;51.176;6.738;2022-09-20T03:41:34;11.20;68.30
48551;DHT22;34397;51.176;6.738;2022-09-20T03:44:46;11.20;68.30
48551;DHT22;34397;51.176;6.738;2022-09-20T03:47:42;11.20;68.40
48551;DHT22;34397;51.176;6.738;2022-09-20T03:50:34;11.20;68.30
48551;DHT22;34397;51.176;6.738;2022-09-20T03:57:10;11.10;68.60
48551;DHT22;34397;51.176;6.738;2022-09-20T04:00:14;11.10;69.00
48551;DHT22;34397;51.176;6.738;2022-09-20T04:03:18;11.10;68.70
48551;DHT22;34397;51.176;6.738;2022-09-20T04:06:05;11.10;68.70
48551;DHT22;34397;51.176;6.738;2022-09-20T04:08:59;11.10;68.70
48551;DHT22;34397;51.176;6.738;2022-09-20T04:11:40;11.10;69.00
48551;DHT22;34397;51.176;6.738;2022-09-20T04:14:21;11.10;69.10
48551;DHT22;34397;51.176;6.738;2022-09-20T04:17:02;11.00;69.70
48551;DHT22;34397;51.176;6.738;2022-09-20T04:19:43;11.00;69.00
48551;DHT22;34397;51.176;6.738;2022-09-20T04:22:19;11.10;69.00
48551;DHT22;34397;51.176;6.738;2022-09-20T04:24:56;11.10;69.20
48551;DHT22;34397;51.176;6.738;2022-09-20T04:27:37;11.10;69.20
48551;DHT22;34397;51.176;6.738;2022-09-20T04:30:17;11.00;69.10
48551;DHT22;34397;51.176;6.738;2022-09-20T04:32:54;11.00;69.20
48551;DHT22;34397;51.176;6.738;2022-09-20T04:35:37;11.00;69.10
48551;DHT22;34397;51.176;6.738;2022-09-20T04:38:32;11.10;69.00
48551;DHT22;34397;51.176;6.738;2022-09-20T04:41:18;11.10;68.90
48551;DHT22;34397;51.176;6.738;2022-09-20T04:44:21;11.00;69.40
48551;DHT22;34397;51.176;6.738;2022-09-20T04:50:33;11.00;69.50
48551;DHT22;34397;51.176;6.738;2022-09-20T04:56:16;11.00;69.70
48551;DHT22;34397;51.176;6.738;2022-09-20T04:59:05;11.00;69.20
48551;DHT22;34397;51.176;6.738;2022-09-20T05:02:20;11.00;69.60
48551;DHT22;34397;51.176;6.738;2022-09-20T05:12:08;10.90;69.90
48551;DHT22;34397;51.176;6.738;2022-09-20T05:15:07;10.90;69.70
48551;DHT22;34397;51.176;6.738;2022-09-20T05:18:06;10.90;69.80
48551;DHT22;34397;51.176;6.738;2022-09-20T05:20:56;10.90;70.20
48551;DHT22;34397;51.176;6.738;2022-09-20T05:27:00;10.80;69.90
48551;DHT22;34397;51.176;6.738;2022-09-20T05:29:49;10.90;70.00
48551;DHT22;34397;51.176;6.738;2022-09-20T05:32:28;10.90;70.10
48551;DHT22;34397;51.176;6.738;2022-09-20T05:35:10;10.80;70.10
48551;DHT22;34397;51.176;6.738;2022-09-20T05:37:52;10.90;70.30
48551;DHT22;34397;51.176;6.738;2022-09-20T05:40:32;10.80;70.20
48551;DHT22;34397;51.176;6.738;2022-09-20T05:43:11;10.90;70.20
48551;DHT22;34397;51.176;6.738;2022-09-20T05:45:49;10.90;70.40
48551;DHT22;34397;51.176;6.738;2022-09-20T05:48:38;10.80;70.60
48551;DHT22;34397;51.176;6.738;2022-09-20T05:51:26;10.80;70.70
48551;DHT22;34397;51.176;6.738;2022-09-20T05:54:23;10.80;70.80
48551;DHT22;34397;51.176;6.738;2022-09-20T05:57:15;10.80;71.00
48551;DHT22;34397;51.176;6.738;2022-09-20T06:00:00;10.80;71.00
48551;DHT22;34397;51.176;6.738;2022-09-20T06:02:43;10.90;70.80
48551;DHT22;34397;51.176;6.738;2022-09-20T06:05:28;10.90;70.70
48551;DHT22;34397;51.176;6.738;2022-09-20T06:08:28;10.90;70.70
48551;DHT22;34397;51.176;6.738;2022-09-20T06:11:21;10.90;70.50
48551;DHT22;34397;51.176;6.738;2022-09-20T06:14:16;11.00;70.30
48551;DHT22;34397;51.176;6.738;2022-09-20T06:17:03;11.00;70.30
48551;DHT22;34397;51.176;6.738;2022-09-20T06:19:44;11.10;70.20
48551;DHT22;34397;51.176;6.738;2022-09-20T06:22:21;11.00;70.10
48551;DHT22;34397;51.176;6.738;2022-09-20T06:25:02;11.00;70.20
48551;DHT22;34397;51.176;6.738;2022-09-20T06:27:40;11.00;70.10
48551;DHT22;34397;51.176;6.738;2022-09-20T06:30:16;11.10;70.30
48551;DHT22;34397;51.176;6.738;2022-09-20T06:32:53;11.10;70.40
48551;DHT22;34397;51.176;6.738;2022-09-20T06:35:32;11.00;70.30
48551;DHT22;34397;51.176;6.738;2022-09-20T06:38:22;11.10;70.10
48551;DHT22;34397;51.176;6.738;2022-09-20T06:41:20;11.20;69.80
48551;DHT22;34397;51.176;6.738;2022-09-20T06:44:01;11.20;69.50
48551;DHT22;34397;51.176;6.738;2022-09-20T06:46:34;11.30;69.40
48551;DHT22;34397;51.176;6.738;2022-09-20T06:49:06;11.30;69.30
48551;DHT22;34397;51.176;6.738;2022-09-20T06:51:39;11.40;69.00
48551;DHT22;34397;51.176;6.738;2022-09-20T06:54:16;11.40;68.80
48551;DHT22;34397;51.176;6.738;2022-09-20T06:56:50;11.50;68.80
48551;DHT22;34397;51.176;6.738;2022-09-20T06:59:23;11.50;68.60
48551;DHT22;34397;51.176;6.738;2022-09-20T07:01:56;11.50;68.50
48551;DHT22;34397;51.176;6.738;2022-09-20T07:04:28;11.60;68.20
48551;DHT22;34397;51.176;6.738;2022-09-20T07:07:01;11.60;68.00
48551;DHT22;34397;51.176;6.738;2022-09-20T07:09:33;11.60;67.90
48551;DHT22;34397;51.176;6.738;2022-09-20T07:12:05;11.60;67.60
48551;DHT22;34397;51.176;6.738;2022-09-20T07:14:43;11.70;67.60
48551;DHT22;34397;51.176;6.738;2022-09-20T07:17:15;11.60;67.90
48551;DHT22;34397;51.176;6.738;2022-09-20T07:19:46;11.70;67.70
48551;DHT22;34397;51.176;6.738;2022-09-20T07:22:18;11.80;67.70
48551;DHT22;34397;51.176;6.738;2022-09-20T07:24:50;11.80;67.70
48551;DHT22;34397;51.176;6.738;2022-09-20T07:27:22;11.90;67.90
48551;DHT22;34397;51.176;6.738;2022-09-20T07:29:55;11.90;66.80
48551;DHT22;34397;51.176;6.738;2022-09-20T07:32:27;12.00;66.40
48551;DHT22;34397;51.176;6.738;2022-09-20T07:34:59;12.10;66.50
48551;DHT22;34397;51.176;6.738;2022-09-20T07:37:31;12.10;66.70
48551;DHT22;34397;51.176;6.738;2022-09-20T07:40:04;12.20;66.60
48551;DHT22;34397;51.176;6.738;2022-09-20T07:42:36;12.20;66.30
48551;DHT22;34397;51.176;6.738;2022-09-20T07:45:10;12.30;66.30
48551;DHT22;34397;51.176;6.738;2022-09-20T07:47:42;12.30;65.90
48551;DHT22;34397;51.176;6.738;2022-09-20T07:50:16;12.40;65.80
48551;DHT22;34397;51.176;6.738;2022-09-20T07:52:49;12.50;65.40
48551;DHT22;34397;51.176;6.738;2022-09-20T07:55:20;12.50;64.70
48551;DHT22;34397;51.176;6.738;2022-09-20T07:57:52;12.50;63.90
48551;DHT22;34397;51.176;6.738;2022-09-20T08:00:26;12.60;64.00
48551;DHT22;34397;51.176;6.738;2022-09-20T08:02:58;12.60;64.10
48551;DHT22;34397;51.176;6.738;2022-09-20T08:05:30;12.70;63.90
48551;DHT22;34397;51.176;6.738;2022-09-20T08:08:02;12.70;63.80
48551;DHT22;34397;51.176;6.738;2022-09-20T08:10:34;12.70;63.60
48551;DHT22;34397;51.176;6.738;2022-09-20T08:13:06;12.80;63.20
48551;DHT22;34397;51.176;6.738;2022-09-20T08:15:40;12.90;62.60
48551;DHT22;34397;51.176;6.738;2022-09-20T08:18:12;12.90;62.20
48551;DHT22;34397;51.176;6.738;2022-09-20T08:20:45;13.00;61.40
48551;DHT22;34397;51.176;6.738;2022-09-20T08:23:18;13.00;62.10
48551;DHT22;34397;51.176;6.738;2022-09-20T08:25:50;13.10;61.80
48551;DHT22;34397;51.176;6.738;2022-09-20T08:28:21;13.10;61.00
48551;DHT22;34397;51.176;6.738;2022-09-20T08:31:01;13.10;61.20
48551;DHT22;34397;51.176;6.738;2022-09-20T08:33:34;13.10;60.80
48551;DHT22;34397;51.176;6.738;2022-09-20T08:36:09;13.20;60.50
48551;DHT22;34397;51.176;6.738;2022-09-20T08:38:43;13.20;60.20
48551;DHT22;34397;51.176;6.738;2022-09-20T08:41:20;13.20;60.00
48551;DHT22;34397;51.176;6.738;2022-09-20T08:43:57;13.30;59.60
48551;DHT22;34397;51.176;6.738;2022-09-20T08:46:35;13.20;59.50
48551;DHT22;34397;51.176;6.738;2022-09-20T08:49:14;13.20;60.00
48551;DHT22;34397;51.176;6.738;2022-09-20T08:51:49;13.10;60.60
48551;DHT22;34397;51.176;6.738;2022-09-20T08:54:21;13.20;60.60
48551;DHT22;34397;51.176;6.738;2022-09-20T08:56:53;13.20;60.30
48551;DHT22;34397;51.176;6.738;2022-09-20T08:59:25;13.20;60.30
48551;DHT22;34397;51.176;6.738;2022-09-20T09:01:59;13.30;60.20
48551;DHT22;34397;51.176;6.738;2022-09-20T09:04:32;13.30;59.80
48551;DHT22;34397;51.176;6.738;2022-09-20T09:07:08;13.40;60.70
48551;DHT22;34397;51.176;6.738;2022-09-20T09:09:42;13.40;60.20
48551;DHT22;34397;51.176;6.738;2022-09-20T09:12:20;13.50;59.60
48551;DHT22;34397;51.176;6.738;2022-09-20T09:14:57;13.50;59.50
48551;DHT22;34397;51.176;6.738;2022-09-20T09:17:32;13.60;59.80
48551;DHT22;34397;51.176;6.738;2022-09-20T09:20:14;13.60;59.00
48551;DHT22;34397;51.176;6.738;2022-09-20T09:22:58;13.70;58.40
48551;DHT22;34397;51.176;6.738;2022-09-20T09:25:34;13.80;57.80
48551;DHT22;34397;51.176;6.738;2022-09-20T09:28:12;13.80;57.90
48551;DHT22;34397;51.176;6.738;2022-09-20T09:30:45;13.90;57.80
48551;DHT22;34397;51.176;6.738;2022-09-20T09:33:24;13.90;57.30
48551;DHT22;34397;51.176;6.738;2022-09-20T09:35:59;14.00;55.90
48551;DHT22;34397;51.176;6.738;2022-09-20T09:38:38;14.00;57.50
48551;DHT22;34397;51.176;6.738;2022-09-20T09:41:23;14.20;57.00
48551;DHT22;34397;51.176;6.738;2022-09-20T09:43:59;14.30;54.90
48551;DHT22;34397;51.176;6.738;2022-09-20T09:46:36;14.40;55.50
48551;DHT22;34397;51.176;6.738;2022-09-20T09:49:13;14.40;55.70
48551;DHT22;34397;51.176;6.738;2022-09-20T09:52:05;14.50;54.50
48551;DHT22;34397;51.176;6.738;2022-09-20T09:54:46;14.50;53.40
48551;DHT22;34397;51.176;6.738;2022-09-20T09:57:39;14.70;54.00
48551;DHT22;34397;51.176;6.738;2022-09-20T10:00:19;14.70;53.10
48551;DHT22;34397;51.176;6.738;2022-09-20T10:03:26;14.80;51.20
48551;DHT22;34397;51.176;6.738;2022-09-20T10:06:12;14.90;50.60
48551;DHT22;34397;51.176;6.738;2022-09-20T10:08:58;14.90;50.00
48551;DHT22;34397;51.176;6.738;2022-09-20T10:11:47;14.90;50.40
48551;DHT22;34397;51.176;6.738;2022-09-20T10:14:38;14.80;52.30
48551;DHT22;34397;51.176;6.738;2022-09-20T10:17:33;14.80;51.00
48551;DHT22;34397;51.176;6.738;2022-09-20T10:20:27;14.70;52.10
48551;DHT22;34397;51.176;6.738;2022-09-20T10:23:17;14.70;52.00
48551;DHT22;34397;51.176;6.738;2022-09-20T10:25:59;14.60;52.60
48551;DHT22;34397;51.176;6.738;2022-09-20T10:28:43;14.60;52.50
48551;DHT22;34397;51.176;6.738;2022-09-20T10:31:32;14.50;52.40
48551;DHT22;34397;51.176;6.738;2022-09-20T10:37:24;14.50;51.60
48551;DHT22;34397;51.176;6.738;2022-09-20T10:40:08;14.40;52.80
48551;DHT22;34397;51.176;6.738;2022-09-20T10:42:52;14.30;53.40
48551;DHT22;34397;51.176;6.738;2022-09-20T10:45:51;14.20;53.50
48551;DHT22;34397;51.176;6.738;2022-09-20T10:48:31;14.10;53.80
48551;DHT22;34397;51.176;6.738;2022-09-20T10:51:10;14.00;54.20
48551;DHT22;34397;51.176;6.738;2022-09-20T10:53:51;13.90;54.60
48551;DHT22;34397;51.176;6.738;2022-09-20T10:56:35;13.80;54.40
48551;DHT22;34397;51.176;6.738;2022-09-20T10:59:23;13.80;54.50
48551;DHT22;34397;51.176;6.738;2022-09-20T11:02:13;13.70;54.20
48551;DHT22;34397;51.176;6.738;2022-09-20T11:04:59;13.60;54.80
48551;DHT22;34397;51.176;6.738;2022-09-20T11:07:54;13.50;55.40
48551;DHT22;34397;51.176;6.738;2022-09-20T11:10:35;13.50;55.30
48551;DHT22;34397;51.176;6.738;2022-09-20T11:13:17;13.50;56.20
48551;DHT22;34397;51.176;6.738;2022-09-20T11:15:57;13.50;56.00
48551;DHT22;34397;51.176;6.738;2022-09-20T11:18:38;13.50;55.80
48551;DHT22;34397;51.176;6.738;2022-09-20T11:21:15;13.60;56.10
48551;DHT22;34397;51.176;6.738;2022-09-20T11:23:55;13.60;56.40
48551;DHT22;34397;51.176;6.738;2022-09-20T11:26:35;13.70;55.80
48551;DHT22;34397;51.176;6.738;2022-09-20T11:29:15;13.70;55.10
48551;DHT22;34397;51.176;6.738;2022-09-20T11:31:53;13.80;55.00
48551;DHT22;34397;51.176;6.738;2022-09-20T11:34:29;13.90;56.10
48551;DHT22;34397;51.176;6.738;2022-09-20T11:37:03;14.10;55.60
48551;DHT22;34397;51.176;6.738;2022-09-20T11:39:38;14.20;55.40
48551;DHT22;34397;51.176;6.738;2022-09-20T11:42:17;14.40;54.50
48551;DHT22;34397;51.176;6.738;2022-09-20T11:44:53;14.70;54.20
48551;DHT22;34397;51.176;6.738;2022-09-20T11:47:28;15.00;53.20
48551;DHT22;34397;51.176;6.738;2022-09-20T11:53:28;15.90;51.40
48551;DHT22;34397;51.176;6.738;2022-09-20T11:56:16;16.50;50.90
48551;DHT22;34397;51.176;6.738;2022-09-20T11:58:51;17.20;48.00
48551;DHT22;34397;51.176;6.738;2022-09-20T12:01:28;17.80;46.70
48551;DHT22;34397;51.176;6.738;2022-09-20T12:04:08;18.30;44.70
48551;DHT22;34397;51.176;6.738;2022-09-20T12:06:43;18.80;43.80
48551;DHT22;34397;51.176;6.738;2022-09-20T12:09:24;19.20;44.20
48551;DHT22;34397;51.176;6.738;2022-09-20T12:12:13;19.50;42.40
48551;DHT22;34397;51.176;6.738;2022-09-20T12:14:53;19.70;41.30
48551;DHT22;34397;51.176;6.738;2022-09-20T12:21:05;19.60;41.10
48551;DHT22;34397;51.176;6.738;2022-09-20T12:26:53;19.20;42.70
48551;DHT22;34397;51.176;6.738;2022-09-20T12:30:02;19.00;41.60
48551;DHT22;34397;51.176;6.738;2022-09-20T12:32:47;18.70;43.00
48551;DHT22;34397;51.176;6.738;2022-09-20T12:35:51;18.40;42.40
48551;DHT22;34397;51.176;6.738;2022-09-20T12:38:57;18.00;44.40
48551;DHT22;34397;51.176;6.738;2022-09-20T12:41:45;17.40;45.00
48551;DHT22;34397;51.176;6.738;2022-09-20T12:44:25;17.00;46.90
48551;DHT22;34397;51.176;6.738;2022-09-20T12:47:02;16.60;48.10
48551;DHT22;34397;51.176;6.738;2022-09-20T12:49:47;16.30;47.70
48551;DHT22;34397;51.176;6.738;2022-09-20T12:52:47;15.90;49.50
48551;DHT22;34397;51.176;6.738;2022-09-20T12:55:34;15.70;49.90
48551;DHT22;34397;51.176;6.738;2022-09-20T12:58:23;15.50;50.70
48551;DHT22;34397;51.176;6.738;2022-09-20T13:04:48;15.60;50.40
48551;DHT22;34397;51.176;6.738;2022-09-20T13:07:45;15.70;50.30
48551;DHT22;34397;51.176;6.738;2022-09-20T13:10:28;15.90;48.70
48551;DHT22;34397;51.176;6.738;2022-09-20T13:16:19;16.40;47.60
48551;DHT22;34397;51.176;6.738;2022-09-20T13:18:58;16.60;47.90
48551;DHT22;34397;51.176;6.738;2022-09-20T13:21:46;16.70;45.70
48551;DHT22;34397;51.176;6.738;2022-09-20T13:24:25;16.80;47.70
48551;DHT22;34397;51.176;6.738;2022-09-20T13:27:02;17.00;48.10
48551;DHT22;34397;51.176;6.738;2022-09-20T13:29:38;17.20;48.10
48551;DHT22;34397;51.176;6.738;2022-09-20T13:32:16;17.50;48.10
48551;DHT22;34397;51.176;6.738;2022-09-20T13:35:03;17.80;46.50
48551;DHT22;34397;51.176;6.738;2022-09-20T13:37:37;18.20;46.70
48551;DHT22;34397;51.176;6.738;2022-09-20T13:40:16;18.40;45.60
48551;DHT22;34397;51.176;6.738;2022-09-20T13:42:52;18.50;45.70
48551;DHT22;34397;51.176;6.738;2022-09-20T13:45:25;18.80;44.40
48551;DHT22;34397;51.176;6.738;2022-09-20T13:47:59;19.10;44.10
48551;DHT22;34397;51.176;6.738;2022-09-20T13:50:33;19.40;43.90
48551;DHT22;34397;51.176;6.738;2022-09-20T13:53:14;19.70;42.20
48551;DHT22;34397;51.176;6.738;2022-09-20T13:55:47;19.90;42.00
48551;DHT22;34397;51.176;6.738;2022-09-20T13:58:24;20.10;41.40
48551;DHT22;34397;51.176;6.738;2022-09-20T14:00:58;20.10;41.30
48551;DHT22;34397;51.176;6.738;2022-09-20T14:03:32;20.20;41.40
48551;DHT22;34397;51.176;6.738;2022-09-20T14:06:10;20.30;41.10
48551;DHT22;34397;51.176;6.738;2022-09-20T14:08:44;20.40;41.40
48551;DHT22;34397;51.176;6.738;2022-09-20T14:11:20;20.40;40.10
48551;DHT22;34397;51.176;6.738;2022-09-20T14:13:56;20.30;39.30
48551;DHT22;34397;51.176;6.738;2022-09-20T14:16:31;20.20;39.80
48551;DHT22;34397;51.176;6.738;2022-09-20T14:19:05;20.10;39.80
48551;DHT22;34397;51.176;6.738;2022-09-20T14:21:38;20.10;39.10
48551;DHT22;34397;51.176;6.738;2022-09-20T14:24:29;20.00;40.20
48551;DHT22;34397;51.176;6.738;2022-09-20T14:27:14;20.00;40.20
48551;DHT22;34397;51.176;6.738;2022-09-20T14:29:49;19.90;38.20
48551;DHT22;34397;51.176;6.738;2022-09-20T14:32:41;19.80;39.00
48551;DHT22;34397;51.176;6.738;2022-09-20T14:35:15;19.80;40.00
48551;DHT22;34397;51.176;6.738;2022-09-20T14:37:50;19.80;38.70
48551;DHT22;34397;51.176;6.738;2022-09-20T14:40:24;20.00;39.10
48551;DHT22;34397;51.176;6.738;2022-09-20T14:42:59;20.10;38.10
48551;DHT22;34397;51.176;6.738;2022-09-20T14:45:34;20.40;39.00
48551;DHT22;34397;51.176;6.738;2022-09-20T14:48:33;20.50;35.90
48551;DHT22;34397;51.176;6.738;2022-09-20T14:51:24;20.90;37.10
48551;DHT22;34397;51.176;6.738;2022-09-20T14:54:17;21.20;36.70
48551;DHT22;34397;51.176;6.738;2022-09-20T14:56:56;21.40;34.30
48551;DHT22;34397;51.176;6.738;2022-09-20T14:59:35;21.60;35.90
48551;DHT22;34397;51.176;6.738;2022-09-20T15:02:13;21.80;35.40
48551;DHT22;34397;51.176;6.738;2022-09-20T15:04:51;21.80;35.30
48551;DHT22;34397;51.176;6.738;2022-09-20T15:07:24;21.80;35.40
48551;DHT22;34397;51.176;6.738;2022-09-20T15:09:56;21.70;34.80
48551;DHT22;34397;51.176;6.738;2022-09-20T15:12:28;21.50;35.00
48551;DHT22;34397;51.176;6.738;2022-09-20T15:15:00;21.30;35.60
48551;DHT22;34397;51.176;6.738;2022-09-20T15:17:34;21.10;36.00
48551;DHT22;34397;51.176;6.738;2022-09-20T15:20:14;20.90;35.80
48551;DHT22;34397;51.176;6.738;2022-09-20T15:22:48;20.70;36.30
48551;DHT22;34397;51.176;6.738;2022-09-20T15:25:20;20.50;36.60
48551;DHT22;34397;51.176;6.738;2022-09-20T15:27:52;20.40;36.90
48551;DHT22;34397;51.176;6.738;2022-09-20T15:30:24;20.30;36.50
48551;DHT22;34397;51.176;6.738;2022-09-20T15:32:57;20.20;37.30
48551;DHT22;34397;51.176;6.738;2022-09-20T15:35:29;20.00;36.80
48551;DHT22;34397;51.176;6.738;2022-09-20T15:38:01;19.90;37.70
48551;DHT22;34397;51.176;6.738;2022-09-20T15:40:33;19.70;38.10
48551;DHT22;34397;51.176;6.738;2022-09-20T15:43:04;19.50;37.30
48551;DHT22;34397;51.176;6.738;2022-09-20T15:45:46;19.40;36.50
48551;DHT22;34397;51.176;6.738;2022-09-20T15:48:22;19.30;37.10
48551;DHT22;34397;51.176;6.738;2022-09-20T15:51:00;19.20;36.90
48551;DHT22;34397;51.176;6.738;2022-09-20T15:53:33;19.20;37.00
48551;DHT22;34397;51.176;6.738;2022-09-20T15:56:14;19.10;37.70
48551;DHT22;34397;51.176;6.738;2022-09-20T15:58:48;19.00;37.70
48551;DHT22;34397;51.176;6.738;2022-09-20T16:01:21;19.00;37.80
48551;DHT22;34397;51.176;6.738;2022-09-20T16:03:55;18.90;37.60
48551;DHT22;34397;51.176;6.738;2022-09-20T16:06:26;18.80;38.20
48551;DHT22;34397;51.176;6.738;2022-09-20T16:08:58;18.70;38.60
48551;DHT22;34397;51.176;6.738;2022-09-20T16:11:30;18.60;39.00
48551;DHT22;34397;51.176;6.738;2022-09-20T16:14:03;18.40;38.60
48551;DHT22;34397;51.176;6.738;2022-09-20T16:16:35;18.40;39.40
48551;DHT22;34397;51.176;6.738;2022-09-20T16:19:09;18.20;39.80
48551;DHT22;34397;51.176;6.738;2022-09-20T16:21:55;18.10;40.00
48551;DHT22;34397;51.176;6.738;2022-09-20T16:24:29;18.10;40.30
48551;DHT22;34397;51.176;6.738;2022-09-20T16:27:04;18.00;40.80
48551;DHT22;34397;51.176;6.738;2022-09-20T16:29:37;17.90;40.60
48551;DHT22;34397;51.176;6.738;2022-09-20T16:32:09;17.90;41.10
48551;DHT22;34397;51.176;6.738;2022-09-20T16:34:42;17.80;41.10
48551;DHT22;34397;51.176;6.738;2022-09-20T16:37:15;17.70;41.40
48551;DHT22;34397;51.176;6.738;2022-09-20T16:39:46;17.60;41.30
48551;DHT22;34397;51.176;6.738;2022-09-20T16:42:18;17.60;41.80
48551;DHT22;34397;51.176;6.738;2022-09-20T16:44:50;17.50;41.80
48551;DHT22;34397;51.176;6.738;2022-09-20T16:47:22;17.40;42.20
48551;DHT22;34397;51.176;6.738;2022-09-20T16:49:55;17.40;42.90
48551;DHT22;34397;51.176;6.738;2022-09-20T16:52:27;17.30;42.40
48551;DHT22;34397;51.176;6.738;2022-09-20T16:54:59;17.30;42.90
48551;DHT22;34397;51.176;6.738;2022-09-20T16:57:32;17.20;43.00
48551;DHT22;34397;51.176;6.738;2022-09-20T17:00:07;17.10;43.00
48551;DHT22;34397;51.176;6.738;2022-09-20T17:02:41;17.10;42.90
48551;DHT22;34397;51.176;6.738;2022-09-20T17:05:15;17.00;43.00
48551;DHT22;34397;51.176;6.738;2022-09-20T17:07:47;16.90;43.30
48551;DHT22;34397;51.176;6.738;2022-09-20T17:10:18;16.80;43.40
48551;DHT22;34397;51.176;6.738;2022-09-20T17:12:53;16.70;43.50
48551;DHT22;34397;51.176;6.738;2022-09-20T17:15:27;16.60;43.50
48551;DHT22;34397;51.176;6.738;2022-09-20T17:17:59;16.50;44.20
48551;DHT22;34397;51.176;6.738;2022-09-20T17:20:36;16.40;44.50
48551;DHT22;34397;51.176;6.738;2022-09-20T17:23:09;16.30;44.40
48551;DHT22;34397;51.176;6.738;2022-09-20T17:25:41;16.20;44.60
48551;DHT22;34397;51.176;6.738;2022-09-20T17:28:13;16.10;45.30
48551;DHT22;34397;51.176;6.738;2022-09-20T17:30:45;16.00;45.00
48551;DHT22;34397;51.176;6.738;2022-09-20T17:33:17;16.00;45.10
48551;DHT22;34397;51.176;6.738;2022-09-20T17:35:51;15.90;45.20
48551;DHT22;34397;51.176;6.738;2022-09-20T17:38:23;15.90;45.70
48551;DHT22;34397;51.176;6.738;2022-09-20T17:40:58;15.80;46.00